LFSBLFSN

Guest
Details From LFSB - Bale-Mulhouse
To LFSN - Nancy Essey
Flight Number -
Tags generated
Created
Modified
Stats Distance 84 nm / 155 km
Max Altitude 800 ft / 244 m
Waypoints 3
Social Downloads 1
Likes 0
Share VATSIM

Download

Looking for another format? Having issues loading an existing format? Contact us
Advertisement - Login to hide

Notes

Basic altitude profile: - Ascent Rate: 2500ft/min - Ascent Speed: 250kts - Cruise Altitude: 35000ft - Cruise Speed: 420kts - Descent Rate: 1500ft/min - Descent Speed: 250kts Options: - Use NATs: yes - Use PACOTS: yes - Use low airways: yes - Use high airways: yes

Route

LFSB BLM LFSN

ID Type Via Altitude Latitude Longitude Leg Dist Tot Dist Heading (true) Name
O LFSB APT - 0 ft / 0 m 47.59581˚ 7.52481˚ - 0 nm - Bale-Mulhouse
BLM VOR - 800 ft / 244 m 47.63281˚ 7.49950˚ 2 nm 2 nm 335° / 335° BALE-MULHOUSE VOR-DME
O LFSN APT - 0 ft / 0 m 48.69208˚ 6.23045˚ 81 nm 83 nm 322° / 321° Nancy Essey

Altitude Profile

Advertisement - Login to hide

LFSB

Details ICAO LFSB (MLH)
Name Bale-Mulhouse
Region France
Timezone Europe/Paris (UTC+1.0)
Stats Elevation 885 ft / 270 m (AMSL)
Location 47.595810° 7.524806°
Runways 2
Magnetic Variation 2.084° E

METAR

LFSB 120630Z 25009KT 9999 FEW011 BKN033 BKN040 03/M01 Q1007 NOSIG

Decode

TAF

TAF LFSB 120500Z 1206/1306 26008KT 9999 BKN030 BECMG 1221/1223 CAVOK

Decode

Departure Runways

ID Width Length Bearing (true) Bearing (mag) Surface Threshold Offset Overrun Length
08 193 ft / 59 m 5,956 ft / 1,816 m 76.91° 74.83° Concrete 0 ft / 0 m 0 ft / 0 m
15 197 ft / 60 m 12,802 ft / 3,902 m 154.86° 152.78° Concrete 0 ft / 0 m 0 ft / 0 m
26 193 ft / 59 m 5,956 ft / 1,816 m 256.93° 254.85° Concrete 722 ft / 220 m 0 ft / 0 m
33 197 ft / 60 m 12,802 ft / 3,902 m 334.88° 332.80° Concrete 3,675 ft / 1,120 m 0 ft / 0 m

LFSN

Details ICAO LFSN (ENC)
Name Nancy Essey
Region France
Timezone Europe/Paris (UTC+1.0)
Stats Elevation 751 ft / 229 m (AMSL)
Location 48.692079° 6.230454°
Runways 1
Magnetic Variation 1.720° E

METAR

LFSN 120630Z AUTO 24007KT 200V270 9999 OVC018 03/00 Q1006

Decode

TAF

Not found

Destination Runways

ID Width Length Bearing (true) Bearing (mag) Surface Threshold Offset Overrun Length
03 131 ft / 40 m 4,584 ft / 1,397 m 28.80° 27.08° Asphalt 0 ft / 0 m 0 ft / 0 m
21 131 ft / 40 m 4,584 ft / 1,397 m 208.81° 207.09° Asphalt 0 ft / 0 m 0 ft / 0 m

Approach Navaids

Runway Type Ident Frequency Range Bearing (true) Bearing (mag) Slope Elevation
03 Localiser NY 108.50 MHz 18 nm / 33 km 30.42° 28.70° - 751 ft / 229 m (AMSL)
03 Glidescope NY 108.50 MHz 10 nm / 19 km 28.81° 27.09° 3.00° 751 ft / 229 m (AMSL)
21 Localiser NY 108.50 MHz 18 nm / 33 km 209.11° 207.39° - 751 ft / 229 m (AMSL)